Flight Track Log - Related Links

Times and Time Zones

All times are in EDT time to prevent confusion due to time zone crossing. See the N838TH flight status page for this flight to view local times or setup timezone preferences in your user account.

Time Position Orientation Groundspeed Altitude Reporting Facility
EDT Latitude Longitude Course Direction KTS MPH feet Rate Location/Type
Sun 06:28:07 PM 32.8772 -97.0528 183° South 161 185 1,800  Level FAA TRACON SMA TRACON (SMA)
Sun 06:28:47 PM 32.8408 -97.0553 234° Southwest 194 223 3,500 2,815 Climbing FAA TRACON SMA TRACON (SMA)
Sun 06:29:28 PM 32.8242 -97.0831 288° West 198 228 5,600 2,889 Climbing FAA TRACON SMA TRACON (SMA)
Sun 06:30:08 PM 32.8358 -97.1269 289° West 205 236 7,400 2,506 Climbing FAA TRACON SMA TRACON (SMA)
Sun 06:30:47 PM 32.8492 -97.1725 292° West 239 275 8,900 2,658 Climbing FAA TRACON SMA TRACON (SMA)
Sun 06:31:27 PM 32.8694 -97.2311 297° West 284 327 10,900 3,525 Climbing FAA TRACON SMA TRACON (SMA)
Sun 06:32:07 PM 32.8961 -97.2922 297° West 305 351 13,600 3,975 Climbing FAA TRACON SMA TRACON (SMA)
Sun 06:32:47 PM 32.9200 -97.3481 298° West 309 356 16,200 3,600 Climbing FAA TRACON SMA TRACON (SMA)
Sun 06:33:27 PM 32.9486 -97.4125 297° West 321 369 18,400 3,111 Climbing FAA TRACON SMA TRACON (SMA)
Sun 06:34:08 PM 32.9789 -97.4828 298° West 349 402 20,400 3,293 Climbing FAA TRACON SMA TRACON (SMA)
Sun 06:34:49 PM 33.0106 -97.5533 298° West 347 399 22,900 3,075 Climbing FAA TRACON SMA TRACON (SMA)
Sun 06:35:28 PM 33.0383 -97.6150 298° West 344 396 24,500 2,354 Climbing FAA TRACON SMA TRACON (SMA)
Sun 06:36:08 PM 33.0708 -97.6872 296° West 357 411 26,000 2,203 Climbing FAA TRACON SMA TRACON (SMA)
Sun 06:36:47 PM 33.0978 -97.7536 292° West 363 418 27,400 2,475 Climbing FAA TRACON SMA TRACON (SMA)
Sun 06:37:28 PM 33.1233 -97.8292 290° West 353 406 29,300 2,429 Climbing FAA TRACON SMA TRACON (SMA)
Sun 06:38:11 PM 33.1464 -97.9047 290° West 349 402 30,800 2,025 Climbing FAA TRACON SMA TRACON (SMA)
Sun 06:38:48 PM 33.1700 -97.9811 293° West 356 410 32,000 1,658 Climbing FAA TRACON SMA TRACON (SMA)
Sun 06:39:27 PM 33.1936 -98.0489 291° West 359 413 32,900 1,350 Climbing FAA TRACON SMA TRACON (SMA)
Sun 06:40:08 PM 33.2194 -98.1275 287° West 368 423 33,800 1,221 Climbing FAA TRACON SMA TRACON (SMA)
Sun 06:41:20 PM 33.2522 -98.2531 303° West 371 427 35,200 1,182 Climbing Fort Worth Center
Sun 06:42:20 PM 33.3100 -98.3581 315° West 366 421 36,400 1,050 Climbing Fort Worth Center
Sun 06:43:20 PM 33.3925 -98.4558 315° West 405 466 37,300 800 Climbing Fort Worth Center
Sun 06:44:20 PM 33.4772 -98.5592 313° West 410 472 38,000 850 Climbing Fort Worth Center
Sun 06:45:20 PM 33.5681 -98.6750 314° West 432 497 39,000 950 Climbing Fort Worth Center
Sun 06:46:20 PM 33.6503 -98.7783 314° West 438 504 39,900 750 Climbing Fort Worth Center
Sun 06:47:20 PM 33.7306 -98.8794 314° West 426 490 40,500 600 Climbing Fort Worth Center
Sun 06:48:20 PM 33.8128 -98.9833 314° West 421 484 41,100 400 Climbing Fort Worth Center
Sun 06:49:20 PM 33.8950 -99.0875 316° Northwest 427 491 41,300 300 Climbing Fort Worth Center
Sun 06:50:20 PM 33.9708 -99.1767 314° West 422 486 41,700 655 Climbing Fort Worth Center
Sun 06:51:19 PM 34.0550 -99.2811 313° West 422 486 42,600 650 Climbing Fort Worth Center
Sun 06:52:20 PM 34.1369 -99.3858 314° West 427 491 43,000 300 Climbing Fort Worth Center
Sun 06:53:19 PM 34.2208 -99.4906 314° West 427 491 43,200 350 Climbing Fort Worth Center
Sun 06:54:20 PM 34.3003 -99.5906 313° West 422 486 43,700 446 Climbing Fort Worth Center
Sun 06:55:20 PM 34.3819 -99.6983 314° West 422 486 44,100 276 Climbing Fort Worth Center
Sun 06:57:14 PM 34.5439 -99.9047 313° West 421 484 44,500 170 Climbing Albuquerque Center
Sun 06:58:16 PM 34.6264 -100.0106 313° West 426 490 44,600 144 Climbing Albuquerque Center
Sun 06:59:19 PM 34.7078 -100.1167 313° West 428 493 44,800 144 Climbing Albuquerque Center
Sun 07:00:21 PM 34.7900 -100.2225 313° West 428 493 44,900 97 Climbing Albuquerque Center
Sun 07:01:23 PM 34.8714 -100.3275 313° West 427 491 45,000 145 Climbing Albuquerque Center
Sun 07:02:25 PM 34.9592 -100.4428 313° West 428 493 45,200 145 Climbing Albuquerque Center
Sun 07:03:27 PM 35.0406 -100.5483 313° West 428 493 45,300 144 Climbing Albuquerque Center
Sun 07:04:30 PM 35.1214 -100.6544 313° West 427 491 45,500 192 Climbing Albuquerque Center
Sun 07:05:32 PM 35.2181 -100.7819 313° West 427 491 45,700 145 Climbing Albuquerque Center
Sun 07:06:34 PM 35.2975 -100.8861 313° West 424 488 45,800 48 Climbing Albuquerque Center
Sun 07:07:36 PM 35.3764 -100.9908 312° West 421 484 45,800  Level Albuquerque Center
Sun 07:08:38 PM 35.4544 -101.0956 313° West 420 483 45,800  Level Albuquerque Center
Sun 07:09:40 PM 35.5333 -101.2008 313° West 420 483 45,800  Level Albuquerque Center
Sun 07:10:42 PM 35.6278 -101.3269 312° West 421 484 45,800  Level Albuquerque Center
Sun 07:11:44 PM 35.7072 -101.4344 312° West 423 487 45,800 48 Level Albuquerque Center
Sun 07:12:46 PM 35.7853 -101.5422 313° West 425 489 45,900 97 Climbing Albuquerque Center
Sun 07:13:48 PM 35.8650 -101.6467 312° West 423 487 46,000 97 Climbing Albuquerque Center
Sun 07:14:50 PM 35.9439 -101.7536 312° West 424 488 46,100 97 Climbing Albuquerque Center
Sun 07:15:52 PM 36.0208 -101.8597 312° West 420 483 46,200 97 Climbing Albuquerque Center
Sun 07:16:54 PM 36.1136 -101.9856 312° West 415 478 46,300 48 Climbing Albuquerque Center
Sun 07:17:56 PM 36.1908 -102.0914 312° West 416 479 46,300  Level Albuquerque Center
Sun 07:18:58 PM 36.2678 -102.1989 312° West 416 479 46,300  Level Albuquerque Center
Sun 07:20:00 PM 36.3444 -102.3044 312° West 415 478 46,300  Level Albuquerque Center
Sun 07:21:02 PM 36.4222 -102.4106 312° West 415 478 46,300  Level Albuquerque Center
Sun 07:22:04 PM 36.4992 -102.5175 312° West 416 479 46,300  Level Albuquerque Center
Sun 07:23:06 PM 36.5919 -102.6469 311° West 417 480 46,300  Level Albuquerque Center
Sun 07:24:08 PM 36.6697 -102.7569 312° West 421 484 46,300  Level Albuquerque Center
Sun 07:25:09 PM 36.7436 -102.8600 311° West 418 481 46,300  Level Albuquerque Center
Sun 07:26:11 PM 36.8292 -102.9811 312° West 417 480 46,300  Level Albuquerque Center
Sun 07:27:13 PM 36.9033 -103.0853 311° West 419 482 46,300  Level Albuquerque Center
Sun 07:28:15 PM 36.9894 -103.2078 311° West 419 482 46,300  Level Albuquerque Center
Sun 07:29:17 PM 37.0628 -103.3119 312° West 418 481 46,300 -48 Level Albuquerque Center
Sun 07:30:19 PM 37.1367 -103.4167 312° West 419 482 46,200  Descending Albuquerque Center
Sun 07:31:10 PM 37.2108 -103.5206 311° West 420 483 46,300 105 Climbing Denver Center
Sun 07:32:13 PM 37.2842 -103.6258 311° West 419 482 46,400 96 Climbing Denver Center
Sun 07:33:15 PM 37.3700 -103.7486 311° West 418 481 46,500 97 Climbing Denver Center
Sun 07:34:17 PM 37.4425 -103.8525 311° West 415 478 46,600 97 Climbing Denver Center
Sun 07:35:19 PM 37.5217 -103.9683 311° West 411 473 46,700 96 Climbing Denver Center
Sun 07:36:22 PM 37.5914 -104.0703 310° West 411 473 46,800 96 Climbing Denver Center
Sun 07:37:24 PM 37.6728 -104.1908 311° West 407 468 46,900 48 Climbing Denver Center
Sun 07:38:26 PM 37.7550 -104.3103 311° West 405 466 46,900  Level Denver Center
Sun 07:39:28 PM 37.8253 -104.4125 311° West 403 464 46,900  Level Denver Center
Sun 07:40:30 PM 37.9061 -104.5314 311° West 400 460 46,900  Level Denver Center
Sun 07:41:32 PM 37.9753 -104.6339 310° West 400 460 46,900  Level Denver Center
Sun 07:42:34 PM 38.0553 -104.7533 311° West 398 458 46,900  Level Denver Center
Sun 07:43:36 PM 38.1236 -104.8544 310° West 395 455 46,900 -144 Level Denver Center
Sun 07:44:39 PM 38.1922 -104.9578 311° West 397 457 46,600 -240 Descending Denver Center
Sun 07:45:41 PM 38.2739 -105.0794 310° West 404 465 46,400 -97 Descending Denver Center
Sun 07:46:43 PM 38.3550 -105.2025 310° West 409 471 46,400  Level Denver Center
Sun 07:47:45 PM 38.4297 -105.3158 310° West 412 474 46,400  Level Denver Center
Sun 07:48:47 PM 38.5039 -105.4289 311° West 411 473 46,400  Level Denver Center
Sun 07:49:49 PM 38.5792 -105.5417 310° West 412 474 46,400  Level Denver Center
Sun 07:50:52 PM 38.6539 -105.6558 310° West 413 475 46,400  Level Denver Center
Sun 07:51:54 PM 38.7281 -105.7711 310° West 414 476 46,400  Level Denver Center
Sun 07:52:56 PM 38.8028 -105.8856 310° West 414 476 46,400  Level Denver Center
Sun 07:53:58 PM 38.8767 -106.0003 310° West 414 476 46,400  Level Denver Center
Sun 07:55:00 PM 38.9653 -106.1361 309° West 418 481 46,400 48 Level Denver Center
Sun 07:56:02 PM 39.0336 -106.2433 310° West 417 480 46,500 97 Climbing Denver Center
Sun 07:57:04 PM 39.1158 -106.3700 310° West 414 476 46,600 96 Climbing Denver Center
Sun 07:58:07 PM 39.1853 -106.4781 309° West 410 472 46,700 96 Climbing Denver Center
Sun 07:59:09 PM 39.2658 -106.6047 309° West 408 470 46,800 97 Climbing Denver Center
Sun 08:00:11 PM 39.3328 -106.7111 309° West 403 464 46,900 48 Climbing Denver Center
Sun 08:01:14 PM 39.4114 -106.8369 309° West 402 463 46,900  Level Denver Center
Sun 08:02:16 PM 39.4772 -106.9439 309° West 399 459 46,900  Level Denver Center
Sun 08:03:18 PM 39.5569 -107.0697 309° West 403 464 46,900  Level Denver Center
Sun 08:04:20 PM 39.6244 -107.1778 309° West 404 465 46,900  Level Denver Center
Sun 08:05:22 PM 39.7036 -107.3047 309° West 405 466 46,900  Level Denver Center
Sun 08:06:25 PM 39.7711 -107.4139 309° West 406 467 46,900  Level Denver Center
Sun 08:07:27 PM 39.8506 -107.5411 309° West 406 467 46,900  Level Denver Center
Sun 08:08:29 PM 39.9181 -107.6511 308° West 407 468 46,900  Level Denver Center
Sun 08:09:31 PM 39.9969 -107.7811 309° West 409 471 46,900  Level Denver Center
Sun 08:10:33 PM 40.0653 -107.8925 308° West 411 473 46,900  Level Denver Center
Sun 08:11:35 PM 40.1442 -108.0231 309° West 411 473 46,900  Level Denver Center
Sun 08:12:38 PM 40.2122 -108.1347 308° West 412 474 46,900  Level Denver Center
Sun 08:13:40 PM 40.2919 -108.2667 308° West 414 476 46,900  Level Denver Center
Sun 08:14:42 PM 40.3597 -108.3806 307° West 416 479 46,900  Level Denver Center
Sun 08:15:44 PM 40.4383 -108.5158 308° West 417 480 46,900  Level Denver Center
Sun 08:16:46 PM 40.5058 -108.6300 309° West 417 480 46,900  Level Denver Center
Sun 08:17:48 PM 40.5872 -108.7622 308° West 417 480 46,900  Level Denver Center
Sun 08:18:50 PM 40.6550 -108.8778 308° West 417 480 46,900  Level Denver Center
Sun 08:19:52 PM 40.7353 -109.0144 307° West 418 481 46,900  Level Denver Center
Sun 08:20:55 PM 40.8028 -109.1314 308° West 418 481 46,900  Level Denver Center
Sun 08:21:57 PM 40.8836 -109.2678 307° West 420 483 46,900 48 Level Denver Center
Sun 08:23:01 PM 40.9511 -109.3856 308° West 419 482 47,000 48 Climbing Salt Lake Center
Sun 08:24:03 PM 41.0300 -109.5211 308° West 415 478 47,000  Level Salt Lake Center
Sun 08:25:05 PM 41.0967 -109.6364 307° West 412 474 47,000  Level Salt Lake Center
Sun 08:26:07 PM 41.1647 -109.7547 307° West 416 479 47,000  Level Salt Lake Center
Sun 08:27:09 PM 41.2417 -109.8908 307° West 413 475 47,000  Level Salt Lake Center
Sun 08:28:11 PM 41.3092 -110.0086 307° West 415 478 47,000  Level Salt Lake Center
Sun 08:29:12 PM 41.3875 -110.1464 307° West 417 480 47,000  Level Salt Lake Center
Sun 08:30:14 PM 41.4547 -110.2653 307° West 418 481 47,000  Level Salt Lake Center
Sun 08:31:16 PM 41.5331 -110.4047 307° West 419 482 47,000  Level Salt Lake Center
Sun 08:32:18 PM 41.6006 -110.5250 307° West 421 484 47,000  Level Salt Lake Center
Sun 08:33:20 PM 41.6800 -110.6658 307° West 424 488 47,000  Level Salt Lake Center
Sun 08:34:22 PM 41.7472 -110.7869 307° West 424 488 47,000  Level Salt Lake Center
Sun 08:35:24 PM 41.8147 -110.9092 306° West 425 489 47,000  Level Salt Lake Center
Sun 08:36:26 PM 41.8883 -111.0447 307° West 426 490 47,000  Level Salt Lake Center
Sun 08:37:28 PM 41.9597 -111.1725 306° West 426 490 47,000  Level Salt Lake Center
Sun 08:38:29 PM 42.0308 -111.3039 306° West 430 495 47,000  Level Salt Lake Center
Sun 08:39:31 PM 42.1136 -111.4567 307° West 431 496 47,000  Level Salt Lake Center
Sun 08:40:33 PM 42.1853 -111.5875 306° West 431 496 47,000  Level Salt Lake Center
Sun 08:41:35 PM 42.2558 -111.7181 306° West 430 495 47,000  Level Salt Lake Center
Sun 08:42:37 PM 42.3261 -111.8489 306° West 428 493 47,000  Level Salt Lake Center
Sun 08:43:39 PM 42.3958 -111.9797 306° West 427 491 47,000  Level Salt Lake Center
Sun 08:44:40 PM 42.4658 -112.1100 305° West 426 490 47,000  Level Salt Lake Center
Sun 08:45:42 PM 42.5336 -112.2400 306° West 421 484 47,000  Level Salt Lake Center
Sun 08:46:44 PM 42.6014 -112.3681 306° West 418 481 47,000  Level Salt Lake Center
Sun 08:47:46 PM 42.6806 -112.5156 306° West 413 475 47,000  Level Salt Lake Center
Sun 08:48:47 PM 42.7419 -112.6314 305° West 409 471 47,000  Level Salt Lake Center
Sun 08:49:49 PM 42.8158 -112.7739 305° West 410 472 47,000  Level Salt Lake Center
Sun 08:50:51 PM 42.8792 -112.8958 303° West 411 473 47,000  Level Salt Lake Center
Sun 08:51:53 PM 42.9403 -113.0231 306° West 415 478 47,000  Level Salt Lake Center
Sun 08:52:54 PM 43.0150 -113.1622 305° West 408 470 47,000  Level Salt Lake Center
Sun 08:53:56 PM 43.0781 -113.2858 305° West 410 472 47,000  Level Salt Lake Center
Sun 08:54:58 PM 43.1508 -113.4297 305° West 411 473 47,000  Level Salt Lake Center
Sun 08:56:00 PM 43.2133 -113.5522 305° West 410 472 47,000  Level Salt Lake Center
Sun 08:57:01 PM 43.2861 -113.6967 305° West 410 472 47,000  Level Salt Lake Center
Sun 08:58:03 PM 43.3478 -113.8200 306° West 410 472 47,000  Level Salt Lake Center
Sun 08:59:05 PM 43.4169 -113.9536 304° West 443 510 47,000  Level Salt Lake Center
Sun 09:00:06 PM 43.4886 -114.0983 303° West 417 480 47,000  Level Salt Lake Center
Sun 09:01:08 PM 43.5483 -114.2233 304° West 411 473 47,000  Level Salt Lake Center
Sun 09:02:10 PM 43.6208 -114.3694 304° West 412 474 47,000  Level Salt Lake Center
Sun 09:03:11 PM 43.6825 -114.4950 303° West 413 475 47,000  Level Salt Lake Center
Sun 09:04:13 PM 43.7525 -114.6419 304° West 412 474 47,000  Level Salt Lake Center
Sun 09:05:15 PM 43.8139 -114.7689 305° West 413 475 47,000  Level Salt Lake Center
Sun 09:06:16 PM 43.8767 -114.8950 307° West 414 476 47,000  Level Salt Lake Center
Sun 09:07:18 PM 43.9544 -115.0386 306° West 416 479 47,000  Level Salt Lake Center
Sun 09:08:20 PM 44.0203 -115.1625 306° West 416 479 47,000  Level Salt Lake Center
Sun 09:09:21 PM 44.0958 -115.3075 307° West 416 479 47,000  Level Salt Lake Center
Sun 09:10:23 PM 44.1622 -115.4322 306° West 417 480 47,000  Level Salt Lake Center
Sun 09:11:25 PM 44.2386 -115.5772 306° West 417 480 47,000  Level Salt Lake Center
Sun 09:12:27 PM 44.3039 -115.7011 306° West 415 478 47,000  Level Salt Lake Center
Sun 09:13:28 PM 44.3686 -115.8261 306° West 416 479 47,000  Level Salt Lake Center
Sun 09:14:30 PM 44.4447 -115.9731 305° West 419 482 47,000  Level Salt Lake Center
Sun 09:15:31 PM 44.5169 -116.1167 306° West 417 480 47,000  Level Salt Lake Center
Sun 09:16:33 PM 44.5814 -116.2425 305° West 422 486 47,000  Level Salt Lake Center
Sun 09:17:35 PM 44.6556 -116.3894 306° West 418 481 47,000  Level Salt Lake Center
Sun 09:18:37 PM 44.7200 -116.5158 305° West 416 479 47,000  Level Salt Lake Center
Sun 09:19:38 PM 44.7842 -116.6433 305° West 417 480 47,000  Level Salt Lake Center
Sun 09:20:40 PM 44.8594 -116.7928 305° West 418 481 47,000  Level Salt Lake Center
Sun 09:21:41 PM 44.9236 -116.9214 305° West 419 482 47,000  Level Salt Lake Center
Sun 09:22:43 PM 44.9983 -117.0722 305° West 419 482 47,000  Level Salt Lake Center
Sun 09:23:45 PM 45.0619 -117.2019 305° West 419 482 47,000  Level Salt Lake Center
Sun 09:24:46 PM 45.1364 -117.3519 304° West 418 481 47,000  Level Salt Lake Center
Sun 09:25:48 PM 45.1994 -117.4828 305° West 419 482 47,000  Level Salt Lake Center
Sun 09:26:50 PM 45.2628 -117.6133 305° West 420 483 47,000  Level Salt Lake Center
Sun 09:27:51 PM 45.3381 -117.7675 304° West 419 482 47,000  Level Salt Lake Center
Sun 09:28:53 PM 45.4022 -117.9028 305° West 417 480 47,000  Level Salt Lake Center
Sun 09:29:55 PM 45.4675 -118.0381 304° West 417 480 47,000  Level Salt Lake Center
Sun 09:30:56 PM 45.5317 -118.1733 304° West 417 480 47,000  Level Salt Lake Center
Sun 09:31:58 PM 45.5961 -118.3083 303° West 416 479 47,000  Level Salt Lake Center
Sun 09:32:59 PM 45.6586 -118.4442 304° West 415 478 47,000  Level Salt Lake Center
Sun 09:34:01 PM 45.7350 -118.6067 304° West 414 476 47,000  Level Salt Lake Center
Sun 09:35:03 PM 45.7989 -118.7419 304° West 414 476 47,000  Level Salt Lake Center
Sun 09:36:04 PM 45.8619 -118.8778 304° West 413 475 47,000  Level Salt Lake Center
Sun 09:37:23 PM 45.9492 -119.0672 304° West 413 475 47,000  Level Seattle Center
Sun 09:38:24 PM 46.0125 -119.2042 304° West 414 476 47,000  Level Seattle Center
Sun 09:39:25 PM 46.0758 -119.3422 303° West 417 480 47,000  Level Seattle Center
Sun 09:40:26 PM 46.1383 -119.4806 303° West 417 480 47,000  Level Seattle Center
Sun 09:41:27 PM 46.2006 -119.6183 303° West 416 479 47,000  Level Seattle Center
Sun 09:42:28 PM 46.2636 -119.7583 303° West 418 481 47,000  Level Seattle Center
Sun 09:43:30 PM 46.3264 -119.8983 303° West 418 481 47,000 -341 Level Seattle Center
Sun 09:44:31 PM 46.4008 -120.0628 303° West 413 475 46,300 -1,426 Descending Seattle Center
Sun 09:45:32 PM 46.4600 -120.1967 302° West 403 464 44,100 -2,262 Descending Seattle Center
Sun 09:46:33 PM 46.5189 -120.3322 303° West 400 460 41,700 -2,361 Descending Seattle Center
Sun 09:47:34 PM 46.5781 -120.4669 305° West 400 460 39,300 -2,293 Descending Seattle Center
Sun 09:48:36 PM 46.6389 -120.5931 305° West 392 451 37,000 -2,244 Descending Seattle Center
Sun 09:49:37 PM 46.6944 -120.7069 305° West 358 412 34,700 -2,262 Descending Seattle Center
Sun 09:50:38 PM 46.7483 -120.8197 304° West 344 396 32,400 -2,213 Descending Seattle Center
Sun 09:51:39 PM 46.8025 -120.9383 305° West 350 403 30,200 -2,361 Descending Seattle Center
Sun 09:52:40 PM 46.8706 -121.0825 304° West 360 414 27,600 -2,361 Descending Seattle Center
Sun 09:53:41 PM 46.9261 -121.2014 305° West 360 414 25,400 -2,164 Descending Seattle Center
Sun 09:54:42 PM 46.9781 -121.3122 304° West 340 391 23,200 -2,066 Descending Seattle Center
Sun 09:55:43 PM 47.0289 -121.4214 304° West 333 383 21,200 -1,951 Descending Seattle Center
Sun 09:56:45 PM 47.0794 -121.5300 305° West 330 380 19,200 -1,981 Descending Seattle Center
Sun 09:57:29 PM 47.1242 -121.6231 303° West 321 369 17,700 -1,943 Descending Seattle Center
Sun 09:58:30 PM 47.1722 -121.7300 304° West 316 364 15,800 -1,828 Descending Seattle Center
Sun 09:59:37 PM 47.2253 -121.8475 305° West 308 354 13,800 -1,828 Descending Seattle Center
Sun 10:00:38 PM 47.2750 -121.9539 303° West 307 353 11,900 -1,835 Descending Seattle Center
Sun 10:01:38 PM 47.3186 -122.0539 305° West 283 326 10,100 -2,035 Descending Seattle Center
Sun 10:02:33 PM 47.3578 -122.1369 300° West 274 315 8,000 -1,862 Descending Seattle Center
Sun 10:03:34 PM 47.3958 -122.2339 299° West 268 308 6,500 -984 Descending Seattle Center
Sun 10:04:35 PM 47.4311 -122.3292 319° Northwest 261 300 6,000 -738 Descending Seattle Center
Sun 10:05:36 PM 47.4867 -122.4000 329° Northwest 249 287 5,000 -1,537 Descending Seattle Center
Sun 10:06:36 PM 47.5414 -122.4486 359° North 231 266 2,900 -1,565 Descending Seattle Center
Sun 10:07:31 PM 47.5928 -122.4500 69° East 204 235 2,000 -569 Descending Seattle Center
Sun 10:08:32 PM 47.6097 -122.3847 139° Southeast 165 190 1,800 -492 Descending Seattle Center
Sun 10:09:33 PM 47.5831 -122.3503 147° Southeast 132 152 1,000 -694 Descending Seattle Center
Sun 10:10:33 PM 47.5567 -122.3253 147° Southeast 125 144 400 -600 Descending Seattle Center

Login

Don't have an account? Register now (free) for customized features, flight alerts, and more!